Time;durP1;ratioP1;P1;durP2;ratioP2;P2;SDS_P1;SDS_P2;PMS_P1;PMS_P2;Temp;Humidity;BMP_temperature;BMP_pressure;BME280_temperature;BME280_humidity;BME280_pressure;Samples;Min_cycle;Max_cycle;Signal;HPM_P1;HPM_P2
2023/08/25 04:25:35;;;;;;;9.80;3.50;;;;;;;19.57;100.00;99638.73;101651;1293;601972;-64
2023/08/25 04:28:04;;;;;;;5.30;3.30;;;;;;;19.91;100.00;99638.13;103894;1269;59801;-65
2023/08/25 04:30:32;;;;;;;5.50;3.30;;;;;;;20.01;100.00;99640.19;103615;1281;59679;-68
2023/08/25 04:33:05;;;;;;;4.70;3.40;;;;;;;20.06;100.00;99644.73;104099;1269;71934;-68
2023/08/25 04:35:35;;;;;;;5.10;3.30;;;;;;;20.11;100.00;99645.94;104957;1267;69346;-63
2023/08/25 04:38:05;;;;;;;4.40;3.50;;;;;;;20.16;100.00;99640.86;103767;1269;245504;-62
2023/08/25 04:40:34;;;;;;;3.40;3.10;;;;;;;20.22;100.00;99641.29;103808;1264;61427;-62
2023/08/25 04:43:01;;;;;;;6.90;3.10;;;;;;;20.27;100.00;99640.58;103905;1261;59781;-62
2023/08/25 04:45:29;;;;;;;5.00;3.20;;;;;;;20.33;100.00;99638.24;103737;1267;71757;-61
2023/08/25 04:47:57;;;;;;;4.40;4.00;;;;;;;20.40;100.00;99639.05;103945;1276;69802;-64
2023/08/25 04:50:25;;;;;;;5.10;3.00;;;;;;;20.48;100.00;99640.55;103813;1261;72816;-64
2023/08/25 04:52:52;;;;;;;4.20;3.80;;;;;;;20.55;100.00;99641.76;103929;1266;61761;-64
2023/08/25 04:55:20;;;;;;;5.20;3.30;;;;;;;20.60;100.00;99640.42;103953;1266;60215;-63
2023/08/25 04:57:49;;;;;;;4.60;3.30;;;;;;;20.69;100.00;99640.11;105634;1259;72824;-66
2023/08/25 05:00:18;;;;;;;5.00;3.10;;;;;;;20.76;100.00;99642.15;107509;1260;69113;-61
2023/08/25 05:02:48;;;;;;;3.50;2.60;;;;;;;20.84;100.00;99641.64;105632;1260;72367;-61
2023/08/25 05:05:18;;;;;;;5.80;3.10;;;;;;;20.92;100.00;99638.81;104090;1263;60635;-63
2023/08/25 05:07:45;;;;;;;3.70;3.10;;;;;;;21.00;100.00;99637.93;104147;1264;59749;-61
2023/08/25 05:10:15;;;;;;;3.60;2.90;;;;;;;21.08;100.00;99639.96;103936;1263;72966;-63
2023/08/25 05:12:44;;;;;;;5.30;3.30;;;;;;;21.16;100.00;99638.54;104063;1261;69699;-62
2023/08/25 05:15:12;;;;;;;3.50;2.90;;;;;;;21.22;100.00;99639.92;103762;1266;72338;-60
2023/08/25 05:17:40;;;;;;;;;;;;;;;21.29;100.00;99638.46;104190;1272;61517;-61
2023/08/25 05:20:09;;;;;;;;;;;;;;;21.35;100.00;99636.31;103862;1266;59736;-62
2023/08/25 05:22:37;;;;;;;5.70;2.90;;;;;;;21.39;100.00;99633.27;104752;1259;73009;-63
2023/08/25 05:25:05;;;;;;;;;;;;;;;21.46;100.00;99635.79;107460;1259;69290;-63
2023/08/25 05:27:33;;;;;;;8.90;3.10;;;;;;;21.51;100.00;99637.61;104411;1262;72942;-62
2023/08/25 05:30:01;;;;;;;4.10;2.70;;;;;;;21.57;100.00;99639.23;104172;1267;61738;-62
2023/08/25 05:32:30;;;;;;;3.40;2.60;;;;;;;21.63;100.00;99631.38;104257;1264;60657;-61
2023/08/25 05:35:17;;;;;;;4.80;2.90;;;;;;;21.71;100.00;99629.78;104311;1266;73088;-61
2023/08/25 05:37:48;;;;;;;4.00;2.60;;;;;;;21.79;100.00;99629.46;103852;1270;69473;-64
2023/08/25 05:40:16;;;;;;;4.30;2.50;;;;;;;21.87;100.00;99630.13;104087;1260;72151;-64
2023/08/25 05:42:45;;;;;;;3.90;2.70;;;;;;;21.96;100.00;99625.88;103959;1266;61182;-67
2023/08/25 05:45:12;;;;;;;6.20;2.70;;;;;;;22.06;100.00;99628.43;103809;1260;60353;-66
2023/08/25 05:47:42;;;;;;;3.60;2.20;;;;;;;22.17;100.00;99625.98;104134;1260;73312;-67
2023/08/25 05:50:10;;;;;;;3.50;2.70;;;;;;;22.28;100.00;99624.42;103959;1279;69070;-66
2023/08/25 05:52:41;;;;;;;;;;;;;;;22.39;100.00;99629.13;104038;1276;71366;-65
2023/08/25 05:55:13;;;;;;;5.90;3.00;;;;;;;22.48;100.00;99628.48;104068;1260;61007;-65
2023/08/25 05:57:41;;;;;;;6.20;3.00;;;;;;;22.53;100.00;99628.95;103757;1267;59794;-66
2023/08/25 06:00:09;;;;;;;5.80;3.50;;;;;;;22.59;100.00;99623.56;104303;1274;73269;-65
2023/08/25 06:02:40;;;;;;;5.00;3.30;;;;;;;22.68;100.00;99621.71;103907;1264;69127;-65
2023/08/25 06:05:11;;;;;;;5.70;3.10;;;;;;;22.77;100.00;99622.65;104020;1279;72388;-66
2023/08/25 06:07:39;;;;;;;5.10;3.50;;;;;;;22.83;100.00;99620.61;103972;1263;61786;-65
2023/08/25 06:10:08;;;;;;;4.80;2.90;;;;;;;22.89;100.00;99618.21;103971;1262;59724;-66
2023/08/25 06:12:35;;;;;;;3.60;2.70;;;;;;;22.95;99.72;99618.45;104061;1263;73343;-67
2023/08/25 06:15:05;;;;;;;8.80;3.10;;;;;;;23.00;99.90;99621.17;103975;1259;69419;-67
2023/08/25 06:17:32;;;;;;;7.40;3.20;;;;;;;23.06;99.04;99617.02;104417;1260;72528;-65
2023/08/25 06:20:00;;;;;;;3.50;2.90;;;;;;;23.09;96.85;99619.47;104389;1260;61412;-67
2023/08/25 06:22:28;;;;;;;4.00;2.90;;;;;;;23.15;95.25;99619.04;104692;1260;60375;-65
2023/08/25 06:24:55;;;;;;;8.30;3.10;;;;;;;23.18;93.16;99619.63;104219;1267;73678;-66
2023/08/25 06:27:23;;;;;;;4.60;3.10;;;;;;;23.25;96.45;99621.45;104384;1267;69321;-66
2023/08/25 06:29:51;;;;;;;3.90;2.40;;;;;;;23.32;92.26;99623.47;104593;1257;72272;-63
2023/08/25 06:32:19;;;;;;;;;;;;;;;23.38;92.74;99621.65;104518;1258;59850;-63
2023/08/25 06:34:51;;;;;;;3.10;2.80;;;;;;;23.47;91.60;99624.91;104265;1260;59737;-63
2023/08/25 06:37:19;;;;;;;2.90;2.10;;;;;;;23.53;86.86;99617.70;104616;1257;72772;-63
2023/08/25 06:39:47;;;;;;;5.20;2.30;;;;;;;23.61;87.31;99612.29;104120;1266;70420;-62
2023/08/25 06:42:17;;;;;;;6.80;2.50;;;;;;;23.70;86.44;99607.13;104534;1257;73096;-65
2023/08/25 06:44:47;;;;;;;12.40;2.90;;;;;;;23.81;84.28;99606.23;104340;1259;59780;-64
2023/08/25 06:47:14;;;;;;;4.40;2.40;;;;;;;23.92;83.42;99606.25;104754;1257;59754;-64
2023/08/25 06:49:42;;;;;;;5.70;2.50;;;;;;;24.02;82.92;99607.05;104346;1257;72810;-64
2023/08/25 06:52:10;;;;;;;8.20;2.20;;;;;;;24.14;80.56;99612.16;104378;1257;69224;-67
2023/08/25 06:54:37;;;;;;;3.10;2.10;;;;;;;24.20;79.70;99610.95;104311;1267;73355;-67
2023/08/25 06:57:05;;;;;;;3.00;2.30;;;;;;;24.31;81.90;99611.25;104539;1257;60180;-65
2023/08/25 06:59:33;;;;;;;2.30;2.20;;;;;;;24.40;77.10;99611.30;106071;1256;60161;-67
2023/08/25 07:02:00;;;;;;;;;;;;;;;24.48;75.03;99611.76;105750;1254;73285;-62
2023/08/25 07:04:28;;;;;;;;;;;;;;;24.58;74.82;99618.61;106064;1254;69133;-63
2023/08/25 07:06:56;;;;;;;4.60;2.10;;;;;;;24.65;71.47;99616.10;104345;1261;72502;-64
2023/08/25 07:09:24;;;;;;;;;;;;;;;24.74;71.41;99606.20;104718;1257;60085;-65
2023/08/25 07:11:51;;;;;;;;;;;;;;;24.84;69.51;99604.67;105653;1252;60221;-67
2023/08/25 07:14:19;;;;;;;;;;;;;;;24.92;67.92;99598.50;108212;1253;72837;-69
2023/08/25 07:16:46;;;;;;;;;;;;;;;24.99;68.18;99598.77;106406;1257;69822;-66
2023/08/25 07:19:14;;;;;;;2.30;2.00;;;;;;;25.09;68.51;99600.30;104591;1259;72508;-67
2023/08/25 07:21:42;;;;;;;;;;;;;;;25.19;70.39;99600.87;104652;1257;59898;-66
2023/08/25 07:24:10;;;;;;;2.90;2.00;;;;;;;25.27;67.41;99588.05;106318;1253;60393;-66
2023/08/25 07:26:37;;;;;;;;;;;;;;;25.41;67.02;99595.11;108240;1253;72060;-67
2023/08/25 07:29:08;;;;;;;;;;;;;;;25.54;68.25;99598.95;107766;1254;69350;-67
2023/08/25 07:31:35;;;;;;;3.40;2.40;;;;;;;25.65;67.15;99599.22;104689;1254;71472;-67
2023/08/25 07:34:03;;;;;;;2.70;2.10;;;;;;;25.73;65.74;99597.55;105399;1253;60324;-68
2023/08/25 07:36:32;;;;;;;2.80;2.40;;;;;;;25.78;63.98;99598.81;104575;1259;60637;-68
2023/08/25 07:39:01;;;;;;;4.60;2.70;;;;;;;25.83;62.35;99601.09;104451;1257;74023;-67
2023/08/25 07:41:29;;;;;;;3.00;2.40;;;;;;;25.91;63.48;99607.23;104760;1259;69120;-67
2023/08/25 07:43:57;;;;;;;4.50;2.20;;;;;;;26.01;64.09;99602.61;104453;1253;72741;-66
2023/08/25 07:46:25;;;;;;;2.60;2.20;;;;;;;26.08;61.19;99599.36;104424;1254;59775;-65
2023/08/25 07:49:10;;;;;;;3.00;2.30;;;;;;;26.19;61.38;99596.38;101347;1302;601393;-67
2023/08/25 07:51:38;;;;;;;;;;;;;;;26.17;60.00;99594.80;103480;1271;60802;-66
2023/08/25 07:54:08;;;;;;;2.80;2.40;;;;;;;26.18;59.60;99588.59;103562;1272;59821;-64
2023/08/25 07:56:36;;;;;;;4.10;2.50;;;;;;;26.19;58.79;99587.96;103556;1280;73811;-65
2023/08/25 07:59:05;;;;;;;;;;;;;;;26.27;58.08;99586.18;104035;1270;69139;-66
2023/08/25 08:01:33;;;;;;;2.40;2.20;;;;;;;26.32;58.41;99584.38;103675;1267;72365;-65
2023/08/25 08:04:01;;;;;;;5.20;2.40;;;;;;;26.36;58.49;99578.73;103707;1277;268284;-66
2023/08/25 08:06:33;;;;;;;5.60;2.30;;;;;;;26.39;57.75;99578.44;103934;1279;60631;-66
2023/08/25 08:09:01;;;;;;;3.40;2.20;;;;;;;26.48;56.95;99575.17;104061;1277;71504;-68
2023/08/25 08:11:29;;;;;;;;;;;;;;;26.56;57.28;99576.88;103652;1268;69528;-68
2023/08/25 08:13:56;;;;;;;3.10;1.90;;;;;;;26.61;56.69;99575.55;103868;1269;72382;-68
2023/08/25 08:16:24;;;;;;;2.90;2.30;;;;;;;26.70;56.41;99578.34;104087;1270;59809;-68
2023/08/25 08:18:52;;;;;;;4.90;1.90;;;;;;;26.84;56.40;99575.92;104344;1263;59716;-67
2023/08/25 08:21:20;;;;;;;;;;;;;;;26.94;56.08;99581.92;105041;1263;72761;-66
2023/08/25 08:23:47;;;;;;;;;;;;;;;27.06;55.90;99580.94;107225;1263;69721;-66
2023/08/25 08:26:15;;;;;;;;;;;;;;;27.14;56.24;99582.70;107057;1264;72922;-67
2023/08/25 08:28:43;;;;;;;6.40;2.20;;;;;;;27.21;53.53;99582.59;106982;1264;59949;-67
2023/08/25 08:31:17;;;;;;;4.40;2.10;;;;;;;27.27;54.01;99586.52;107179;1263;60293;-68
2023/08/25 08:33:47;;;;;;;3.50;2.30;;;;;;;27.37;53.65;99580.02;107095;1263;72998;-69
2023/08/25 08:36:16;;;;;;;4.60;2.10;;;;;;;27.46;52.38;99582.03;107098;1263;69109;-70
2023/08/25 08:38:43;;;;;;;3.30;2.10;;;;;;;27.52;52.92;99578.95;107105;1263;72512;-67
2023/08/25 08:41:15;;;;;;;4.70;1.80;;;;;;;27.61;51.96;99572.05;107232;1263;59794;-66
2023/08/25 08:43:44;;;;;;;2.40;1.90;;;;;;;27.72;51.54;99572.80;107049;1264;60459;-66
2023/08/25 08:46:14;;;;;;;2.50;1.80;;;;;;;27.82;49.97;99579.18;107196;1263;73051;-67
2023/08/25 08:48:43;;;;;;;3.50;2.00;;;;;;;27.92;52.14;99586.15;107148;1263;69048;-67
2023/08/25 08:51:11;;;;;;;5.90;2.10;;;;;;;28.02;50.58;99580.50;107212;1263;72934;-67
2023/08/25 08:53:38;;;;;;;3.10;2.00;;;;;;;28.03;49.93;99582.39;107274;1263;59684;-67
2023/08/25 08:56:07;;;;;;;3.20;1.80;;;;;;;28.14;51.21;99575.93;107169;1263;60363;-67
2023/08/25 08:58:35;;;;;;;5.90;2.40;;;;;;;28.28;49.72;99574.34;107174;1263;72924;-66
2023/08/25 09:01:03;;;;;;;;;;;;;;;28.39;48.47;99573.11;107220;1263;69538;-66
2023/08/25 09:03:34;;;;;;;3.80;2.30;;;;;;;28.40;48.48;99574.58;107035;1263;71951;-66
2023/08/25 09:06:03;;;;;;;3.20;2.10;;;;;;;28.39;48.29;99572.69;107035;1263;60180;-66
2023/08/25 09:08:31;;;;;;;4.90;2.20;;;;;;;28.39;47.55;99567.16;106748;1264;60738;-67
2023/08/25 09:11:00;;;;;;;4.60;2.40;;;;;;;28.41;48.07;99565.74;107538;1260;72823;-66
2023/08/25 09:13:31;;;;;;;2.60;2.10;;;;;;;28.45;47.47;99563.34;107530;1261;69715;-67
2023/08/25 09:15:59;;;;;;;3.00;2.40;;;;;;;28.53;48.14;99562.34;107529;1261;72583;-67
2023/08/25 09:18:34;;;;;;;7.60;3.00;;;;;;;28.56;47.45;99563.44;107573;1260;60232;-67
2023/08/25 09:21:03;;;;;;;15.90;3.00;;;;;;;28.65;47.27;99554.08;107622;1260;59824;-66
2023/08/25 09:23:31;;;;;;;8.30;2.50;;;;;;;28.70;48.27;99555.07;107470;1260;73740;-67
2023/08/25 09:26:03;;;;;;;8.00;2.60;;;;;;;28.75;47.85;99550.19;107450;1260;69017;-66
2023/08/25 09:28:35;;;;;;;5.50;2.60;;;;;;;28.82;48.41;99550.60;107436;1260;72359;-67
2023/08/25 09:31:03;;;;;;;5.50;2.20;;;;;;;28.94;48.37;99550.42;107400;1261;59812;-67
2023/08/25 09:33:31;;;;;;;3.50;2.10;;;;;;;28.95;47.01;99549.73;107448;1260;58599;-71
2023/08/25 09:36:01;;;;;;;2.80;1.90;;;;;;;28.97;47.10;99538.17;107478;1260;73279;-68
2023/08/25 09:38:29;;;;;;;3.90;2.30;;;;;;;28.99;47.34;99535.33;107445;1260;69016;-67
2023/08/25 09:41:01;;;;;;;3.70;2.10;;;;;;;29.02;46.50;99542.23;107481;1260;72533;-67
2023/08/25 09:43:33;;;;;;;4.00;1.70;;;;;;;29.04;46.02;99542.02;107491;1260;59027;-68
2023/08/25 09:46:01;;;;;;;5.10;2.30;;;;;;;29.03;46.16;99540.42;107618;1260;59811;-67
2023/08/25 09:48:28;;;;;;;3.70;2.30;;;;;;;29.09;46.50;99532.31;107572;1260;73724;-64
2023/08/25 09:50:56;;;;;;;2.80;2.20;;;;;;;29.19;46.55;99540.84;107235;1260;70486;-65
2023/08/25 09:53:26;;;;;;;;;;;;;;;29.33;45.59;99543.30;107526;1260;72549;-63
2023/08/25 09:56:06;;;;;;;3.00;2.10;;;;;;;29.43;45.35;99541.86;107508;1260;58901;-64
2023/08/25 09:58:34;;;;;;;3.40;2.30;;;;;;;29.52;44.41;99542.55;107658;1260;59159;-65
2023/08/25 10:01:01;;;;;;;;;;;;;;;29.63;44.58;99535.67;108597;1252;72841;-67
2023/08/25 10:03:31;;;;;;;5.20;1.80;;;;;;;29.66;44.19;99534.54;108544;1252;69120;-68
2023/08/25 10:05:59;;;;;;;2.60;2.00;;;;;;;29.70;43.57;99539.29;108526;1252;72315;-70
2023/08/25 10:08:26;;;;;;;3.20;1.70;;;;;;;29.64;42.86;99536.19;108394;1252;59867;-67
2023/08/25 10:10:54;;;;;;;;;;;;;;;29.60;43.48;99532.34;108301;1254;59798;-66
2023/08/25 10:13:22;;;;;;;5.90;2.50;;;;;;;29.54;44.23;99530.88;108468;1253;72892;-66
2023/08/25 10:15:50;;;;;;;3.80;2.00;;;;;;;29.66;44.10;99531.45;108308;1253;69057;-65
2023/08/25 10:18:17;;;;;;;3.00;2.20;;;;;;;29.73;44.38;99532.01;108378;1253;74767;-67
2023/08/25 10:20:45;;;;;;;;;;;;;;;29.72;44.00;99530.90;108437;1252;60064;-67
2023/08/25 10:23:13;;;;;;;2.60;2.00;;;;;;;29.68;44.39;99533.64;108280;1253;59851;-67
2023/08/25 10:25:40;;;;;;;;;;;;;;;29.74;44.82;99528.76;108364;1252;73315;-68
2023/08/25 10:28:09;;;;;;;4.20;2.20;;;;;;;29.86;44.87;99533.14;108365;1253;69121;-66
2023/08/25 10:30:36;;;;;;;6.10;2.40;;;;;;;30.00;44.36;99532.62;108157;1252;72966;-66
2023/08/25 10:33:10;;;;;;;;;;;;;;;30.15;43.99;99524.23;108373;1253;60789;-67
2023/08/25 10:35:45;;;;;;;5.20;2.40;;;;;;;30.24;43.90;99524.80;108504;1252;59839;-67
2023/08/25 10:38:19;;;;;;;4.80;2.50;;;;;;;30.32;43.13;99522.59;108510;1252;73712;-68
2023/08/25 10:40:57;;;;;;;1.90;1.60;;;;;;;30.38;42.96;99519.35;108540;1253;69691;-69
2023/08/25 10:43:25;;;;;;;3.60;2.00;;;;;;;30.45;43.22;99516.86;108518;1253;72781;-69
2023/08/25 10:45:53;;;;;;;2.10;1.80;;;;;;;30.44;41.33;99517.17;108460;1253;58731;-68
2023/08/25 10:48:21;;;;;;;3.00;1.80;;;;;;;30.40;40.39;99512.23;108620;1253;59752;-69
2023/08/25 10:51:09;;;;;;;2.30;1.70;;;;;;;30.28;40.01;99517.74;108550;1253;73477;-70
2023/08/25 10:53:38;;;;;;;4.20;2.00;;;;;;;30.30;40.49;99523.22;108428;1252;69109;-69
2023/08/25 10:56:33;;;;;;;2.80;2.00;;;;;;;30.34;40.02;99520.77;108533;1253;73843;-69
2023/08/25 10:59:04;;;;;;;4.40;1.90;;;;;;;30.31;39.28;99522.45;108426;1253;60429;-70
2023/08/25 11:01:38;;;;;;;2.00;1.80;;;;;;;30.36;40.03;99519.05;108589;1253;60092;-70
2023/08/25 11:04:11;;;;;;;4.60;1.90;;;;;;;30.46;41.00;99513.58;108558;1252;72783;-70
2023/08/25 11:06:54;;;;;;;3.50;2.00;;;;;;;30.54;40.05;99511.91;108581;1253;69236;-69
2023/08/25 11:09:37;;;;;;;4.90;1.70;;;;;;;30.67;40.74;99510.86;108386;1253;72505;-69
2023/08/25 11:12:08;;;;;;;2.40;2.10;;;;;;;30.71;39.56;99509.84;108354;1253;59751;-70
2023/08/25 11:14:37;;;;;;;3.50;2.00;;;;;;;30.77;39.37;99502.16;108441;1253;59710;-69
2023/08/25 11:17:05;;;;;;;2.40;2.10;;;;;;;30.92;39.45;99498.08;108252;1252;73391;-69
2023/08/25 11:19:36;;;;;;;3.30;2.20;;;;;;;31.11;40.05;99494.33;108481;1253;69652;-70
2023/08/25 11:22:13;;;;;;;5.40;2.50;;;;;;;31.32;40.20;99489.22;108519;1252;72280;-69
2023/08/25 11:24:41;;;;;;;3.40;2.20;;;;;;;31.42;39.79;99488.63;108566;1253;59788;-69
2023/08/25 11:27:10;;;;;;;4.50;2.60;;;;;;;31.48;40.72;99489.66;108474;1252;59819;-69
2023/08/25 11:29:44;;;;;;;5.80;2.60;;;;;;;31.54;40.57;99487.38;108554;1253;73114;-69
2023/08/25 11:32:13;;;;;;;5.50;2.40;;;;;;;31.60;39.88;99487.89;108563;1253;69037;-68
2023/08/25 11:34:41;;;;;;;4.80;2.50;;;;;;;31.65;39.95;99484.77;108529;1253;71991;-69
2023/08/25 11:37:13;;;;;;;4.10;2.30;;;;;;;31.64;39.44;99486.35;108563;1253;59744;-68
2023/08/25 11:39:45;;;;;;;2.60;2.20;;;;;;;31.61;39.28;99485.36;108103;1253;60681;-69
2023/08/25 11:42:12;;;;;;;2.90;1.80;;;;;;;31.64;39.89;99486.73;108444;1253;72234;-69
2023/08/25 11:44:41;;;;;;;2.40;2.20;;;;;;;31.64;39.74;99484.27;108463;1252;69165;-68
2023/08/25 11:47:09;;;;;;;3.20;2.30;;;;;;;31.68;40.37;99482.80;108457;1253;72614;-69
2023/08/25 11:49:36;;;;;;;4.10;2.00;;;;;;;31.78;40.21;99481.23;108460;1252;59834;-69
2023/08/25 11:52:05;;;;;;;3.10;2.10;;;;;;;31.83;39.28;99480.81;108493;1253;59694;-68
2023/08/25 11:54:46;;;;;;;4.10;2.30;;;;;;;31.77;39.48;99484.48;108341;1254;75182;-68
2023/08/25 11:57:14;;;;;;;2.00;1.80;;;;;;;31.73;39.07;99483.07;108347;1252;69172;-68
2023/08/25 11:59:42;;;;;;;2.80;2.00;;;;;;;31.66;37.98;99478.95;108555;1252;72526;-67
2023/08/25 12:02:14;;;;;;;8.00;2.20;;;;;;;31.69;40.19;99475.83;108539;1253;59980;-68
2023/08/25 12:04:55;;;;;;;2.50;2.20;;;;;;;31.79;39.76;99478.26;108362;1253;60177;-67
2023/08/25 12:07:27;;;;;;;3.80;2.10;;;;;;;31.78;39.03;99477.75;108353;1253;74519;-68
2023/08/25 12:09:59;;;;;;;2.20;2.00;;;;;;;31.76;39.16;99478.34;108425;1253;69308;-68
2023/08/25 12:12:31;;;;;;;2.50;2.00;;;;;;;31.80;40.02;99469.36;108392;1253;73357;-68
2023/08/25 12:14:59;;;;;;;4.70;2.00;;;;;;;31.91;39.33;99467.18;108447;1252;60159;-68
2023/08/25 12:17:27;;;;;;;2.50;1.80;;;;;;;31.99;38.00;99468.86;108537;1252;59800;-68
2023/08/25 12:19:56;;;;;;;3.50;2.00;;;;;;;32.03;39.48;99467.61;108508;1252;73696;-68
2023/08/25 12:22:24;;;;;;;2.50;2.30;;;;;;;32.13;39.14;99468.84;108542;1252;68520;-68
2023/08/25 12:24:52;;;;;;;2.20;1.80;;;;;;;32.18;38.18;99466.02;108378;1253;71760;-68
2023/08/25 12:27:20;;;;;;;2.40;2.20;;;;;;;32.25;38.60;99465.73;108424;1253;60480;-68
2023/08/25 12:29:48;;;;;;;2.20;2.00;;;;;;;32.32;38.60;99465.98;108380;1253;59991;-68
2023/08/25 12:32:15;;;;;;;;;;;;;;;32.41;38.24;99466.63;108307;1253;74509;-68
2023/08/25 12:34:43;;;;;;;3.50;2.10;;;;;;;32.49;37.64;99475.44;108383;1253;68712;-69
2023/08/25 12:37:12;;;;;;;2.80;1.70;;;;;;;32.38;35.79;99471.66;108373;1253;72604;-67
2023/08/25 12:39:40;;;;;;;3.60;2.00;;;;;;;32.18;36.49;99468.88;108400;1253;60227;-67
2023/08/25 12:42:08;;;;;;;2.30;1.80;;;;;;;32.09;35.84;99468.09;108373;1252;59841;-68
2023/08/25 12:44:35;;;;;;;3.00;2.10;;;;;;;32.02;35.50;99464.98;108555;1253;73758;-69
2023/08/25 12:47:03;;;;;;;4.70;1.90;;;;;;;31.96;36.23;99465.39;108382;1256;68999;-69
2023/08/25 12:49:31;;;;;;;3.60;1.90;;;;;;;32.02;35.68;99462.85;108429;1254;72373;-68
2023/08/25 12:51:59;;;;;;;2.60;1.70;;;;;;;32.06;35.99;99465.16;108570;1253;60818;-68
2023/08/25 12:54:26;;;;;;;7.10;2.00;;;;;;;32.13;35.26;99463.73;108536;1253;59657;-67
2023/08/25 12:56:54;;;;;;;3.00;1.90;;;;;;;32.11;34.82;99460.86;108432;1254;73573;-69
2023/08/25 12:59:22;;;;;;;5.10;1.90;;;;;;;31.96;35.05;99467.10;108430;1254;69988;-68
2023/08/25 13:01:50;;;;;;;2.40;2.20;;;;;;;31.95;34.95;99462.41;108620;1253;72268;-64
2023/08/25 13:04:20;;;;;;;4.20;1.90;;;;;;;31.79;35.12;99459.40;108564;1252;59788;-65
2023/08/25 13:06:48;;;;;;;1.90;1.80;;;;;;;31.75;34.89;99460.48;108539;1252;60100;-62
2023/08/25 13:09:16;;;;;;;;;;;;;;;31.81;35.41;99457.15;108681;1252;73715;-66
2023/08/25 13:11:43;;;;;;;4.60;2.00;;;;;;;31.90;34.49;99453.42;108421;1252;69303;-63
2023/08/25 13:14:11;;;;;;;2.10;1.90;;;;;;;31.77;34.00;99451.38;108429;1254;71982;-65
2023/08/25 13:16:39;;;;;;;2.30;1.90;;;;;;;31.75;34.75;99455.05;108402;1254;59878;-63
2023/08/25 13:19:07;;;;;;;4.50;1.80;;;;;;;31.87;34.87;99457.97;108420;1253;58976;-66
2023/08/25 13:21:34;;;;;;;3.20;2.10;;;;;;;31.96;34.32;99461.45;108485;1252;73614;-62
2023/08/25 13:24:02;;;;;;;4.70;1.80;;;;;;;31.98;34.84;99458.02;108511;1253;69017;-61
2023/08/25 13:26:36;;;;;;;2.40;2.20;;;;;;;31.87;34.63;99456.52;108602;1252;72520;-62
2023/08/25 13:29:03;;;;;;;7.70;2.50;;;;;;;31.79;34.65;99451.64;108416;1254;59803;-62
2023/08/25 13:31:31;;;;;;;4.70;2.00;;;;;;;31.99;35.45;99452.30;108507;1253;60297;-63
2023/08/25 13:33:59;;;;;;;6.30;2.30;;;;;;;33.02;33.10;99456.77;108366;1252;73547;-63
2023/08/25 13:36:26;;;;;;;;;;;;;;;33.87;31.49;99449.98;108410;1253;69366;-63
2023/08/25 13:38:55;;;;;;;2.80;1.80;;;;;;;34.63;30.50;99446.73;108338;1254;72466;-62
2023/08/25 13:41:22;;;;;;;8.20;2.20;;;;;;;34.88;29.73;99448.23;108358;1252;59741;-64
2023/08/25 13:43:50;;;;;;;5.80;2.10;;;;;;;34.08;30.20;99444.41;108492;1253;60649;-64
2023/08/25 13:46:17;;;;;;;6.00;2.20;;;;;;;33.49;31.16;99449.92;108511;1252;74089;-62
2023/08/25 13:48:45;;;;;;;2.90;2.00;;;;;;;33.03;31.86;99449.58;108530;1253;69130;-62
2023/08/25 13:51:13;;;;;;;;;;;;;;;32.66;32.51;99451.48;108539;1253;71896;-63
2023/08/25 13:53:41;;;;;;;3.10;2.20;;;;;;;32.29;33.10;99453.63;108398;1253;59683;-63
2023/08/25 13:56:09;;;;;;;5.70;2.20;;;;;;;32.04;33.73;99454.40;108430;1253;58736;-62
2023/08/25 13:58:37;;;;;;;2.90;2.00;;;;;;;32.57;33.62;99449.36;108437;1253;75012;-62
2023/08/25 14:01:05;;;;;;;6.00;2.20;;;;;;;32.73;32.71;99446.30;108381;1254;69216;-64
2023/08/25 14:03:33;;;;;;;2.10;1.90;;;;;;;32.72;32.71;99452.13;108539;1253;72411;-63
2023/08/25 14:06:01;;;;;;;2.20;1.90;;;;;;;33.12;32.23;99447.73;108400;1253;59693;-63
2023/08/25 14:08:36;;;;;;;5.00;1.90;;;;;;;33.46;31.87;99446.21;108278;1253;59738;-62
2023/08/25 14:11:03;;;;;;;;;;;;;;;33.32;31.77;99438.00;108291;1254;74307;-62
2023/08/25 14:13:31;;;;;;;3.00;2.00;;;;;;;33.07;32.43;99439.51;108256;1253;69490;-61
2023/08/25 14:15:58;;;;;;;;;;;;;;;32.79;32.96;99444.77;108437;1253;72491;-62
2023/08/25 14:18:26;;;;;;;4.20;2.00;;;;;;;32.63;34.74;99444.88;108186;1252;59786;-63
2023/08/25 14:20:57;;;;;;;3.10;2.00;;;;;;;32.57;34.34;99445.14;108331;1253;59985;-63
2023/08/25 14:23:24;;;;;;;2.20;2.00;;;;;;;32.48;34.59;99440.41;108252;1254;73649;-64
2023/08/25 14:25:53;;;;;;;3.20;2.10;;;;;;;32.48;35.38;99440.16;108299;1254;71532;-63
2023/08/25 14:28:21;;;;;;;2.20;2.00;;;;;;;32.53;35.02;99446.17;108372;1255;72223;-63
2023/08/25 14:30:49;;;;;;;2.20;2.00;;;;;;;32.57;34.28;99444.95;108413;1253;59823;-63
2023/08/25 14:33:16;;;;;;;2.90;2.20;;;;;;;32.64;33.94;99446.88;108275;1253;60345;-64
2023/08/25 14:35:44;;;;;;;2.40;2.20;;;;;;;32.62;32.83;99450.23;108429;1253;74507;-63
2023/08/25 14:38:11;;;;;;;;;;;;;;;32.54;33.21;99445.60;108288;1257;69900;-63
2023/08/25 14:40:39;;;;;;;2.30;1.90;;;;;;;32.27;33.65;99447.12;108281;1253;71774;-63
2023/08/25 14:43:09;;;;;;;9.80;2.20;;;;;;;32.14;33.67;99444.54;108260;1254;59967;-63
2023/08/25 14:45:37;;;;;;;5.30;2.10;;;;;;;32.08;34.07;99438.97;108535;1253;59699;-63
2023/08/25 14:48:05;;;;;;;3.80;1.90;;;;;;;32.08;34.20;99441.49;108466;1253;73687;-64
2023/08/25 14:50:33;;;;;;;3.30;2.00;;;;;;;32.00;33.52;99445.45;108574;1253;68299;-63
2023/08/25 14:53:01;;;;;;;2.70;2.00;;;;;;;31.98;33.84;99443.34;108527;1252;72533;-63
2023/08/25 14:55:28;;;;;;;4.30;1.90;;;;;;;31.87;34.34;99439.13;108546;1253;59740;-63
2023/08/25 14:57:56;;;;;;;6.10;2.10;;;;;;;31.81;34.15;99438.03;108547;1252;59772;-63
2023/08/25 15:00:24;;;;;;;4.70;2.20;;;;;;;31.78;34.54;99433.97;108640;1252;73507;-64
2023/08/25 15:02:51;;;;;;;;;;;;;;;31.70;34.77;99434.35;108646;1254;69788;-63
2023/08/25 15:05:19;;;;;;;4.20;2.30;;;;;;;31.52;34.31;99440.02;108536;1254;73355;-63
2023/08/25 15:07:47;;;;;;;3.10;1.70;;;;;;;31.35;34.72;99436.88;108571;1252;59747;-63
2023/08/25 15:10:14;;;;;;;4.90;2.10;;;;;;;31.26;34.87;99433.17;108563;1253;59836;-64
2023/08/25 15:12:42;;;;;;;3.20;2.00;;;;;;;31.29;35.05;99435.11;108546;1252;73010;-62
2023/08/25 15:15:09;;;;;;;;;;;;;;;31.28;35.13;99433.09;108484;1253;69105;-62
2023/08/25 15:17:37;;;;;;;4.90;2.30;;;;;;;31.26;35.41;99432.84;108398;1254;72926;-62
2023/08/25 15:20:06;;;;;;;5.20;2.20;;;;;;;31.11;35.00;99435.14;108497;1254;59863;-62
2023/08/25 15:22:33;;;;;;;4.60;2.10;;;;;;;31.11;35.35;99434.11;108374;1252;59788;-63
2023/08/25 15:25:01;;;;;;;3.20;2.50;;;;;;;31.14;34.92;99429.26;108428;1252;73756;-64
2023/08/25 15:27:29;;;;;;;3.90;2.00;;;;;;;31.06;35.42;99429.45;108531;1253;70624;-66
2023/08/25 15:29:58;;;;;;;2.30;2.10;;;;;;;31.03;36.29;99433.16;108602;1253;72319;-63
2023/08/25 15:32:26;;;;;;;2.80;2.10;;;;;;;31.12;36.01;99435.89;108532;1253;60261;-65
2023/08/25 15:34:54;;;;;;;2.10;1.70;;;;;;;31.72;35.02;99433.30;108613;1253;59685;-64
2023/08/25 15:37:21;;;;;;;;;;;;;;;32.10;34.41;99432.53;108558;1252;72493;-63
2023/08/25 15:39:51;;;;;;;4.20;2.00;;;;;;;31.79;34.36;99435.61;108565;1252;69068;-62
2023/08/25 15:42:19;;;;;;;2.20;1.90;;;;;;;31.53;35.17;99436.84;108591;1254;72362;-63
2023/08/25 15:44:46;;;;;;;2.50;2.20;;;;;;;31.28;35.92;99432.14;108604;1252;59821;-64
2023/08/25 15:47:14;;;;;;;;;;;;;;;31.13;36.74;99435.98;108566;1252;59616;-65
2023/08/25 15:49:44;;;;;;;6.40;2.30;;;;;;;31.26;37.02;99434.72;108617;1252;73680;-63
2023/08/25 15:52:14;;;;;;;;;;;;;;;31.74;36.15;99428.36;108539;1254;69616;-63
2023/08/25 15:54:42;;;;;;;3.30;2.00;;;;;;;31.80;36.07;99428.46;108481;1252;72464;-62
2023/08/25 15:57:09;;;;;;;2.60;2.20;;;;;;;31.61;36.31;99428.66;108540;1253;59908;-62
2023/08/25 15:59:37;;;;;;;8.20;2.20;;;;;;;31.42;36.20;99435.31;108525;1253;59672;-62
2023/08/25 16:02:05;;;;;;;4.40;2.30;;;;;;;31.17;36.86;99439.67;108458;1252;72905;-62
2023/08/25 16:04:35;;;;;;;6.00;2.40;;;;;;;30.86;37.37;99445.17;108554;1253;69303;-62